createdAt,value
2022-10-09T00:01:27.203Z,2.10
2022-10-09T00:03:55.284Z,2.07
2022-10-09T00:06:23.783Z,2.00
2022-10-09T00:08:51.146Z,2.10
2022-10-09T00:11:22.951Z,2.30
2022-10-09T00:13:50.348Z,2.20
2022-10-09T00:16:18.764Z,2.33
2022-10-09T00:18:46.067Z,2.37
2022-10-09T00:21:32.400Z,2.07
2022-10-09T00:24:00.272Z,1.87
2022-10-09T00:26:27.662Z,1.90
2022-10-09T00:28:55.091Z,1.90
2022-10-09T00:31:22.609Z,2.10
2022-10-09T00:33:49.753Z,2.47
2022-10-09T00:36:21.703Z,2.17
2022-10-09T00:38:49.152Z,2.10
2022-10-09T00:41:21.247Z,2.40
2022-10-09T00:43:53.391Z,2.10
2022-10-09T00:46:39.159Z,2.20
2022-10-09T00:49:06.170Z,2.07
2022-10-09T00:51:34.784Z,1.87
2022-10-09T00:54:03.187Z,2.10
2022-10-09T00:56:30.319Z,2.17
2022-10-09T00:58:58.313Z,2.07
2022-10-09T01:01:25.422Z,2.20
2022-10-09T01:03:52.599Z,2.07
2022-10-09T01:06:38.772Z,2.10
2022-10-09T01:09:05.776Z,1.93
2022-10-09T01:11:49.503Z,1.90
2022-10-09T01:14:19.718Z,1.90
2022-10-09T01:16:58.879Z,2.13
2022-10-09T01:19:35.136Z,2.10
2022-10-09T01:22:10.426Z,1.97
2022-10-09T01:24:51.628Z,2.00
2022-10-09T01:27:21.991Z,1.97
2022-10-09T01:29:51.342Z,2.13
2022-10-09T01:32:21.077Z,1.90
2022-10-09T01:34:48.639Z,1.77
2022-10-09T01:37:16.928Z,1.97
2022-10-09T01:39:45.300Z,2.17
2022-10-09T01:42:13.276Z,2.00
2022-10-09T01:44:40.335Z,2.30
2022-10-09T01:47:07.463Z,2.10
2022-10-09T01:49:41.243Z,2.17
2022-10-09T01:52:08.259Z,2.17
2022-10-09T01:54:44.247Z,2.07
2022-10-09T01:57:13.747Z,2.13
2022-10-09T01:59:42.668Z,1.93
2022-10-09T02:02:10.050Z,2.03
2022-10-09T02:04:38.736Z,2.00
2022-10-09T02:07:06.576Z,1.90
2022-10-09T02:09:34.401Z,2.10
2022-10-09T02:12:05.134Z,2.00
2022-10-09T02:14:32.175Z,2.20
2022-10-09T02:17:02.782Z,2.07
2022-10-09T02:19:35.628Z,2.10
2022-10-09T02:22:08.830Z,2.33
2022-10-09T02:24:38.551Z,2.20
2022-10-09T02:27:06.012Z,2.13
2022-10-09T02:29:33.155Z,1.93
2022-10-09T02:32:00.283Z,2.13
2022-10-09T02:34:27.316Z,2.00
2022-10-09T02:36:54.374Z,2.23
2022-10-09T02:39:21.432Z,2.30
2022-10-09T02:41:48.597Z,2.10
2022-10-09T02:44:15.636Z,2.10
2022-10-09T02:46:42.754Z,2.00
2022-10-09T02:49:09.859Z,2.30
2022-10-09T02:51:36.907Z,2.20
2022-10-09T02:54:04.271Z,2.20
2022-10-09T02:56:34.524Z,2.10
2022-10-09T02:59:03.969Z,2.00
2022-10-09T03:01:31.104Z,1.93
2022-10-09T03:03:58.180Z,2.50
2022-10-09T03:06:26.194Z,1.70
2022-10-09T03:08:53.981Z,2.00
2022-10-09T03:11:21.733Z,1.93
2022-10-09T03:13:48.903Z,1.70
2022-10-09T03:16:17.346Z,2.03
2022-10-09T03:18:44.929Z,2.00
2022-10-09T03:21:13.713Z,1.90
2022-10-09T03:23:42.627Z,2.00
2022-10-09T03:26:11.360Z,1.90
2022-10-09T03:28:40.214Z,2.13
2022-10-09T03:31:07.643Z,1.90
2022-10-09T03:33:35.119Z,1.60
2022-10-09T03:36:02.325Z,1.53
2022-10-09T03:38:29.367Z,2.07
2022-10-09T03:40:58.604Z,1.53
2022-10-09T03:43:25.806Z,1.90
2022-10-09T03:45:53.116Z,2.00
2022-10-09T03:48:20.210Z,1.97
2022-10-09T03:50:47.619Z,1.80
2022-10-09T03:53:15.479Z,2.13
2022-10-09T03:55:43.169Z,1.90
2022-10-09T03:58:10.623Z,2.30
2022-10-09T04:00:37.854Z,2.00
2022-10-09T04:03:04.977Z,2.10
2022-10-09T04:05:35.821Z,2.30
2022-10-09T04:08:02.937Z,2.10
2022-10-09T04:10:30.083Z,1.90
2022-10-09T04:12:57.194Z,1.90
2022-10-09T04:18:01.353Z,2.00
2022-10-09T04:20:28.421Z,2.03
2022-10-09T04:22:55.521Z,2.00
2022-10-09T04:25:22.565Z,1.93
2022-10-09T04:27:49.610Z,2.00
2022-10-09T04:30:16.702Z,2.30
2022-10-09T04:32:43.753Z,1.80
2022-10-09T04:35:10.818Z,2.30
2022-10-09T04:37:37.895Z,2.17
2022-10-09T04:40:05.297Z,2.20
2022-10-09T04:42:32.339Z,2.33
2022-10-09T04:44:59.423Z,2.23
2022-10-09T04:47:26.471Z,2.17
2022-10-09T04:49:53.496Z,2.33
2022-10-09T04:52:20.554Z,2.10
2022-10-09T04:54:47.679Z,2.27
2022-10-09T04:57:14.743Z,2.40
2022-10-09T04:59:42.180Z,2.30
2022-10-09T05:02:09.246Z,2.00
2022-10-09T05:04:36.302Z,1.97
2022-10-09T05:07:03.351Z,1.93
2022-10-09T05:09:30.450Z,1.90
2022-10-09T05:11:57.534Z,2.20
2022-10-09T05:14:24.604Z,2.10
2022-10-09T05:17:12.368Z,2.00
2022-10-09T05:19:39.828Z,1.70
2022-10-09T05:22:06.938Z,1.73
2022-10-09T05:24:34.012Z,1.70
2022-10-09T05:27:01.051Z,1.70
2022-10-09T05:29:28.074Z,1.90
2022-10-09T05:31:55.232Z,1.80
2022-10-09T05:34:22.434Z,2.00
2022-10-09T05:36:49.463Z,1.90
2022-10-09T05:39:16.901Z,1.87
2022-10-09T05:41:43.927Z,2.10
2022-10-09T05:44:11.347Z,1.73
2022-10-09T05:46:38.384Z,2.10
2022-10-09T05:49:06.334Z,1.80
2022-10-09T05:51:34.312Z,1.80
2022-10-09T05:54:04.195Z,1.80
2022-10-09T05:56:32.270Z,1.90
2022-10-09T05:59:03.350Z,2.00
2022-10-09T06:01:40.686Z,1.90
2022-10-09T06:04:10.888Z,1.70
2022-10-09T06:06:38.830Z,1.73
2022-10-09T06:09:06.367Z,1.80
2022-10-09T06:11:34.632Z,1.90
2022-10-09T06:14:02.470Z,1.97
2022-10-09T06:16:31.195Z,1.70
2022-10-09T06:18:58.453Z,1.90
2022-10-09T06:21:26.622Z,1.90
2022-10-09T06:23:55.078Z,2.00
2022-10-09T06:26:22.790Z,1.80
2022-10-09T06:28:50.214Z,1.87
2022-10-09T06:31:18.634Z,1.37
2022-10-09T06:33:46.738Z,1.60
2022-10-09T06:36:17.716Z,1.60
2022-10-09T06:38:44.781Z,1.70
2022-10-09T06:41:22.018Z,1.70
2022-10-09T06:43:50.564Z,1.80
2022-10-09T06:46:17.664Z,1.83
2022-10-09T06:48:44.758Z,2.10
2022-10-09T06:51:13.496Z,1.90
2022-10-09T06:53:41.417Z,1.90
2022-10-09T06:56:08.717Z,1.67
2022-10-09T06:58:35.977Z,1.90
2022-10-09T07:01:07.460Z,1.80
2022-10-09T07:03:35.139Z,1.73
2022-10-09T07:06:12.911Z,1.83
2022-10-09T07:08:41.157Z,1.80
2022-10-09T07:11:09.592Z,1.67
2022-10-09T07:13:37.055Z,2.00
2022-10-09T07:16:05.136Z,2.00
2022-10-09T07:18:33.991Z,2.03
2022-10-09T07:21:02.181Z,1.70
2022-10-09T07:23:32.720Z,1.73
2022-10-09T07:26:00.269Z,1.70
2022-10-09T07:28:28.146Z,2.10
2022-10-09T07:30:55.415Z,1.80
2022-10-09T07:33:22.441Z,1.77
2022-10-09T07:35:59.726Z,1.63
2022-10-09T07:38:27.123Z,1.93
2022-10-09T07:40:54.399Z,2.03
2022-10-09T07:43:22.267Z,1.73
2022-10-09T07:45:49.400Z,1.90
2022-10-09T07:48:16.462Z,1.97
2022-10-09T07:50:43.504Z,1.83
2022-10-09T07:53:10.540Z,1.77
2022-10-09T07:55:37.602Z,2.03
2022-10-09T07:58:04.621Z,1.90
2022-10-09T08:00:31.652Z,2.20
2022-10-09T08:02:58.681Z,2.00
2022-10-09T08:05:25.776Z,1.83
2022-10-09T08:07:52.814Z,1.80
2022-10-09T08:10:20.222Z,1.80
2022-10-09T08:12:47.759Z,2.10
2022-10-09T08:15:15.003Z,2.20
2022-10-09T08:17:42.431Z,1.83
2022-10-09T08:20:09.741Z,2.20
2022-10-09T08:22:36.805Z,1.80
2022-10-09T08:25:03.963Z,1.60
2022-10-09T08:27:30.996Z,2.20
2022-10-09T08:29:58.003Z,2.00
2022-10-09T08:32:25.034Z,2.10
2022-10-09T08:34:52.884Z,2.20
2022-10-09T08:37:19.974Z,2.23
2022-10-09T08:39:47.000Z,2.07
2022-10-09T08:42:35.915Z,2.23
2022-10-09T08:45:02.974Z,2.13
2022-10-09T08:47:37.035Z,2.17
2022-10-09T08:50:05.966Z,2.10
2022-10-09T08:52:36.106Z,2.00
2022-10-09T08:55:16.440Z,2.27
2022-10-09T08:57:45.238Z,2.20
2022-10-09T09:00:19.746Z,1.70
2022-10-09T09:02:47.244Z,1.90
2022-10-09T09:05:33.611Z,2.00
2022-10-09T09:08:06.317Z,1.93
2022-10-09T09:10:33.370Z,2.03
2022-10-09T09:13:00.389Z,2.07
2022-10-09T09:15:48.014Z,1.83
2022-10-09T09:18:27.431Z,1.83
2022-10-09T09:21:17.573Z,1.97
2022-10-09T09:23:47.079Z,1.77
2022-10-09T09:26:16.004Z,1.70
2022-10-09T09:28:43.380Z,1.40
2022-10-09T09:31:21.810Z,1.50
2022-10-09T09:34:07.724Z,1.40
2022-10-09T09:36:45.375Z,1.53
2022-10-09T09:42:03.544Z,1.07
2022-10-09T09:44:31.186Z,1.30
2022-10-09T09:46:58.247Z,1.10
2022-10-09T09:49:27.670Z,1.13
2022-10-09T09:51:55.542Z,1.30
2022-10-09T09:54:26.993Z,1.40
2022-10-09T09:57:15.870Z,1.27
2022-10-09T09:59:44.683Z,1.10
2022-10-09T10:02:26.991Z,1.40
2022-10-09T10:05:01.628Z,1.20
2022-10-09T10:07:31.470Z,1.10
2022-10-09T10:10:14.401Z,1.03
2022-10-09T10:12:42.559Z,0.90
2022-10-09T10:15:21.885Z,1.10
2022-10-09T10:17:50.500Z,1.10
2022-10-09T10:20:18.505Z,0.90
2022-10-09T10:22:53.419Z,1.03
2022-10-09T10:25:22.605Z,0.97
2022-10-09T10:27:51.846Z,1.03
2022-10-09T10:30:20.065Z,0.73
2022-10-09T10:33:03.000Z,0.80
2022-10-09T10:35:32.193Z,0.80
2022-10-09T10:38:13.147Z,0.97
2022-10-09T10:40:44.705Z,0.70
2022-10-09T10:43:11.706Z,0.70
2022-10-09T10:45:41.550Z,0.77
2022-10-09T10:48:24.184Z,0.80
2022-10-09T10:50:56.938Z,0.43
2022-10-09T10:53:33.693Z,0.30
2022-10-09T10:56:05.334Z,0.60
2022-10-09T10:58:32.654Z,0.50
2022-10-09T11:00:59.714Z,0.47
2022-10-09T11:03:26.769Z,0.60
2022-10-09T11:05:53.821Z,0.60
2022-10-09T11:08:34.034Z,0.50
2022-10-09T11:11:23.556Z,0.60
2022-10-09T11:14:00.396Z,0.73
2022-10-09T11:16:32.781Z,0.50
2022-10-09T11:18:59.935Z,0.70
2022-10-09T11:21:45.621Z,0.53
2022-10-09T11:24:30.760Z,0.60
2022-10-09T11:27:02.395Z,0.57
2022-10-09T11:29:33.915Z,0.40
2022-10-09T11:32:13.643Z,0.60
2022-10-09T11:34:48.093Z,0.50
2022-10-09T11:37:21.159Z,0.70
2022-10-09T11:39:48.212Z,0.37
2022-10-09T11:42:18.015Z,0.40
2022-10-09T11:45:02.801Z,0.80
2022-10-09T11:47:29.897Z,0.60
2022-10-09T11:50:18.771Z,0.60
2022-10-09T11:52:54.116Z,0.37
2022-10-09T11:55:23.339Z,0.60
2022-10-09T11:57:50.697Z,0.37
2022-10-09T12:00:28.908Z,0.30
2022-10-09T12:02:57.882Z,0.20
2022-10-09T12:05:36.969Z,0.30
2022-10-09T12:08:09.147Z,0.30
2022-10-09T12:10:36.360Z,0.40
2022-10-09T12:13:06.538Z,0.30
2022-10-09T12:15:41.478Z,0.37
2022-10-09T12:18:23.942Z,0.50
2022-10-09T12:20:51.408Z,0.20
2022-10-09T12:23:26.755Z,0.37
2022-10-09T12:25:55.600Z,0.20
2022-10-09T12:28:27.964Z,0.40
2022-10-09T12:30:56.173Z,0.20
2022-10-09T12:33:23.205Z,0.20
2022-10-09T12:35:59.068Z,0.30
2022-10-09T12:38:27.207Z,0.30
2022-10-09T12:40:55.294Z,0.30
2022-10-09T12:43:24.195Z,0.20
2022-10-09T12:45:52.595Z,0.20
2022-10-09T12:48:21.719Z,0.30
2022-10-09T12:50:49.222Z,0.30
2022-10-09T12:53:17.815Z,0.50
2022-10-09T12:55:46.299Z,0.20
2022-10-09T12:58:13.301Z,0.43
2022-10-09T13:00:40.627Z,0.10
2022-10-09T13:03:20.033Z,0.40
2022-10-09T13:05:47.084Z,0.40
2022-10-09T13:08:49.544Z,0.60
2022-10-09T13:11:21.457Z,0.60
2022-10-09T13:13:55.173Z,0.43
2022-10-09T13:16:22.949Z,0.60
2022-10-09T13:19:03.041Z,0.60
2022-10-09T13:21:34.430Z,0.60
2022-10-09T13:24:13.169Z,0.50
2022-10-09T13:26:41.475Z,0.80
2022-10-09T13:29:09.011Z,0.47
2022-10-09T13:31:36.951Z,0.50
2022-10-09T13:34:12.034Z,0.60
2022-10-09T13:36:39.089Z,0.30
2022-10-09T13:39:06.648Z,0.53
2022-10-09T13:41:34.105Z,0.40
2022-10-09T13:44:01.122Z,0.50
2022-10-09T13:46:28.195Z,0.50
2022-10-09T13:48:55.273Z,0.60
2022-10-09T13:51:22.309Z,0.40
2022-10-09T13:53:50.273Z,0.80
2022-10-09T13:56:17.333Z,0.37
2022-10-09T13:58:44.372Z,0.70
2022-10-09T14:01:11.496Z,0.40
2022-10-09T14:03:38.572Z,0.37
2022-10-09T14:06:05.815Z,0.50
2022-10-09T14:08:33.012Z,0.40
2022-10-09T14:11:00.716Z,0.50
2022-10-09T14:13:28.523Z,0.47
2022-10-09T14:15:55.892Z,0.50
2022-10-09T14:18:22.928Z,0.40
2022-10-09T14:20:49.988Z,0.40
2022-10-09T14:23:17.056Z,0.70
2022-10-09T14:25:44.067Z,0.60
2022-10-09T14:28:11.159Z,0.70
2022-10-09T14:30:41.631Z,0.70
2022-10-09T14:33:08.698Z,0.50
2022-10-09T14:35:35.840Z,0.50
2022-10-09T14:38:02.904Z,0.67
2022-10-09T14:40:29.922Z,0.57
2022-10-09T14:42:56.973Z,1.10
2022-10-09T14:45:23.994Z,0.50
2022-10-09T14:47:51.022Z,0.50
2022-10-09T14:50:18.056Z,0.60
2022-10-09T14:52:45.102Z,0.50
2022-10-09T14:55:12.118Z,0.50
2022-10-09T14:57:39.190Z,0.57
2022-10-09T15:00:06.675Z,0.60
2022-10-09T15:02:33.835Z,0.60
2022-10-09T15:05:01.052Z,0.67
2022-10-09T15:07:28.261Z,0.60
2022-10-09T15:09:56.835Z,0.70
2022-10-09T15:12:24.056Z,0.60
2022-10-09T15:14:59.882Z,0.60
2022-10-09T15:17:26.933Z,0.80
2022-10-09T15:19:54.060Z,0.60
2022-10-09T15:22:21.099Z,0.53
2022-10-09T15:24:48.328Z,0.70
2022-10-09T15:27:15.384Z,0.60
2022-10-09T15:29:42.396Z,0.60
2022-10-09T15:32:09.675Z,0.60
2022-10-09T15:34:40.821Z,0.60
2022-10-09T15:37:08.294Z,0.60
2022-10-09T15:39:35.398Z,0.60
2022-10-09T15:42:03.447Z,0.60
2022-10-09T15:44:30.486Z,0.83
2022-10-09T15:46:57.505Z,0.70
2022-10-09T15:49:24.529Z,0.57
2022-10-09T15:51:51.749Z,1.00
2022-10-09T15:54:18.804Z,0.83
2022-10-09T15:56:45.863Z,0.80
2022-10-09T15:59:13.987Z,0.50
2022-10-09T16:01:41.077Z,0.73
2022-10-09T16:04:08.250Z,0.80
2022-10-09T16:06:35.366Z,0.73
2022-10-09T16:09:04.023Z,0.57
2022-10-09T16:11:31.918Z,0.70
2022-10-09T16:13:59.607Z,0.93
2022-10-09T16:16:27.711Z,0.70
2022-10-09T16:18:55.671Z,0.80
2022-10-09T16:21:24.235Z,0.80
2022-10-09T16:23:55.790Z,0.93
2022-10-09T16:26:24.559Z,0.80
2022-10-09T16:28:52.351Z,1.20
2022-10-09T16:31:24.005Z,1.23
2022-10-09T16:33:51.184Z,0.97
2022-10-09T16:36:18.800Z,1.17
2022-10-09T16:38:46.060Z,1.10
2022-10-09T16:41:14.908Z,1.03
2022-10-09T16:43:41.962Z,1.07
2022-10-09T16:46:13.498Z,1.20
2022-10-09T16:48:40.533Z,1.00
2022-10-09T16:51:08.340Z,1.10
2022-10-09T16:53:35.507Z,1.30
2022-10-09T16:56:13.125Z,1.40
2022-10-09T16:58:40.810Z,2.20
2022-10-09T17:01:10.045Z,2.27
2022-10-09T17:03:40.179Z,2.30
2022-10-09T17:06:11.998Z,2.70
2022-10-09T17:08:39.343Z,2.80
2022-10-09T17:11:07.496Z,2.60
2022-10-09T17:13:34.537Z,5.77
2022-10-09T17:16:01.609Z,5.60
2022-10-09T17:18:28.624Z,4.40
2022-10-09T17:20:55.658Z,3.30
2022-10-09T17:23:22.731Z,5.67
2022-10-09T17:25:49.854Z,3.73
2022-10-09T17:28:16.912Z,3.60
2022-10-09T17:30:43.988Z,3.07
2022-10-09T17:33:10.993Z,2.40
2022-10-09T17:35:41.397Z,2.37
2022-10-09T17:38:09.209Z,2.83
2022-10-09T17:40:40.080Z,3.37
2022-10-09T17:43:07.775Z,2.87
2022-10-09T17:45:39.360Z,2.50
2022-10-09T17:48:06.536Z,2.20
2022-10-09T17:50:34.227Z,1.90
2022-10-09T17:53:01.457Z,2.13
2022-10-09T17:55:28.661Z,2.30
2022-10-09T17:57:56.039Z,2.67
2022-10-09T18:00:23.157Z,4.33
2022-10-09T18:02:50.530Z,3.50
2022-10-09T18:05:17.598Z,3.80
2022-10-09T18:07:44.753Z,5.07
2022-10-09T18:10:15.751Z,3.83
2022-10-09T18:12:42.960Z,3.87
2022-10-09T18:15:10.771Z,4.27
2022-10-09T18:17:37.832Z,3.20
2022-10-09T18:20:05.029Z,2.97
2022-10-09T18:22:32.357Z,3.30
2022-10-09T18:24:59.426Z,2.67
2022-10-09T18:27:28.870Z,3.10
2022-10-09T18:29:56.006Z,3.07
2022-10-09T18:32:23.063Z,2.90
2022-10-09T18:34:50.083Z,2.50
2022-10-09T18:37:19.718Z,2.80
2022-10-09T18:39:46.778Z,2.40
2022-10-09T18:42:13.871Z,2.60
2022-10-09T18:44:41.625Z,2.13
2022-10-09T18:47:11.832Z,2.67
2022-10-09T18:49:41.115Z,2.60
2022-10-09T18:52:10.169Z,2.60
2022-10-09T18:54:37.226Z,2.57
2022-10-09T18:57:04.586Z,2.13
2022-10-09T18:59:31.852Z,2.27
2022-10-09T19:01:58.952Z,2.60
2022-10-09T19:04:25.979Z,2.30
2022-10-09T19:06:54.562Z,2.17
2022-10-09T19:09:21.601Z,2.20
2022-10-09T19:11:48.673Z,2.30
2022-10-09T19:14:15.912Z,2.50
2022-10-09T19:16:42.978Z,2.60
2022-10-09T19:19:10.026Z,2.40
2022-10-09T19:21:39.375Z,2.20
2022-10-09T19:24:07.063Z,2.53
2022-10-09T19:26:35.223Z,2.40
2022-10-09T19:29:02.323Z,2.60
2022-10-09T19:31:29.411Z,2.70
2022-10-09T19:33:56.438Z,2.60
2022-10-09T19:36:23.509Z,2.23
2022-10-09T19:38:50.563Z,2.33
2022-10-09T19:41:17.622Z,2.40
2022-10-09T19:43:44.890Z,2.53
2022-10-09T19:46:14.208Z,2.80
2022-10-09T19:48:41.456Z,2.77
2022-10-09T19:51:09.931Z,2.73
2022-10-09T19:53:37.085Z,2.73
2022-10-09T19:56:09.549Z,3.10
2022-10-09T19:58:39.218Z,3.10
2022-10-09T20:01:06.420Z,2.73
2022-10-09T20:03:33.484Z,2.80
2022-10-09T20:06:03.939Z,2.53
2022-10-09T20:08:31.030Z,2.87
2022-10-09T20:10:59.335Z,2.90
2022-10-09T20:13:26.458Z,2.87
2022-10-09T20:15:53.522Z,3.20
2022-10-09T20:18:20.581Z,3.00
2022-10-09T20:20:48.520Z,2.70
2022-10-09T20:23:15.584Z,3.00
2022-10-09T20:25:42.610Z,2.70
2022-10-09T20:28:09.687Z,2.90
2022-10-09T20:30:36.739Z,2.70
2022-10-09T20:33:03.845Z,2.80
2022-10-09T20:35:31.093Z,3.17
2022-10-09T20:38:00.943Z,2.93
2022-10-09T20:40:28.019Z,3.03
2022-10-09T20:42:55.044Z,3.27
2022-10-09T20:45:22.109Z,3.40
2022-10-09T20:47:50.203Z,3.40
2022-10-09T20:50:17.255Z,3.13
2022-10-09T20:52:44.289Z,2.90
2022-10-09T20:55:11.436Z,3.10
2022-10-09T20:57:38.469Z,3.43
2022-10-09T21:00:05.869Z,3.70
2022-10-09T21:02:32.892Z,3.80
2022-10-09T21:05:00.102Z,3.70
2022-10-09T21:07:27.136Z,4.00
2022-10-09T21:09:54.176Z,3.90
2022-10-09T21:12:21.198Z,3.57
2022-10-09T21:14:48.215Z,3.37
2022-10-09T21:17:15.225Z,3.50
2022-10-09T21:19:42.245Z,3.33
2022-10-09T21:22:09.271Z,3.20
2022-10-09T21:24:37.218Z,3.20
2022-10-09T21:27:04.373Z,3.10
2022-10-09T21:29:31.408Z,2.97
2022-10-09T21:31:58.462Z,2.80
2022-10-09T21:34:25.526Z,2.90
2022-10-09T21:37:19.789Z,3.07
2022-10-09T21:39:41.097Z,3.00
2022-10-09T21:42:08.144Z,3.20
2022-10-09T21:44:35.233Z,3.10
2022-10-09T21:47:02.257Z,3.07
2022-10-09T21:49:30.204Z,3.00
2022-10-09T21:51:57.276Z,3.20
2022-10-09T21:54:24.376Z,3.30
2022-10-09T21:56:51.797Z,3.30
2022-10-09T21:59:18.826Z,3.00
2022-10-09T22:01:46.039Z,3.07
2022-10-09T22:04:13.166Z,2.90
2022-10-09T22:06:41.073Z,2.80
2022-10-09T22:09:08.153Z,2.70
2022-10-09T22:11:35.178Z,2.83
2022-10-09T22:14:02.221Z,2.77
2022-10-09T22:16:29.249Z,2.93
2022-10-09T22:18:56.321Z,2.73
2022-10-09T22:21:23.456Z,2.70
2022-10-09T22:23:50.754Z,2.53
2022-10-09T22:26:20.017Z,2.30
2022-10-09T22:28:47.589Z,2.80
2022-10-09T22:31:16.233Z,2.17
2022-10-09T22:33:43.487Z,2.40
2022-10-09T22:36:14.837Z,2.10
2022-10-09T22:38:42.478Z,1.90
2022-10-09T22:41:11.291Z,2.37
2022-10-09T22:43:38.796Z,2.07
2022-10-09T22:46:06.931Z,2.20
2022-10-09T22:48:35.051Z,2.10
2022-10-09T22:51:03.127Z,2.20
2022-10-09T22:53:30.207Z,1.90
2022-10-09T22:55:57.282Z,2.07
2022-10-09T22:58:24.357Z,2.20
2022-10-09T23:00:51.534Z,2.27
2022-10-09T23:03:18.910Z,1.93
2022-10-09T23:05:45.954Z,2.00
2022-10-09T23:08:13.026Z,2.37
2022-10-09T23:10:40.638Z,2.00
2022-10-09T23:13:07.720Z,2.20
2022-10-09T23:15:35.420Z,2.33
2022-10-09T23:18:02.938Z,2.00
2022-10-09T23:20:30.093Z,2.40
2022-10-09T23:22:57.372Z,2.20
2022-10-09T23:25:24.424Z,2.20
2022-10-09T23:27:51.505Z,2.00
2022-10-09T23:30:18.586Z,2.03
2022-10-09T23:32:45.634Z,2.20
2022-10-09T23:35:12.767Z,2.30
2022-10-09T23:37:39.796Z,2.07
2022-10-09T23:40:07.130Z,2.30
2022-10-09T23:42:34.210Z,2.00
2022-10-09T23:45:01.257Z,2.20
2022-10-09T23:47:28.279Z,1.80
2022-10-09T23:49:55.340Z,1.87
2022-10-09T23:52:22.381Z,2.10
2022-10-09T23:54:49.447Z,1.67
2022-10-09T23:57:16.511Z,1.63
2022-10-09T23:59:43.685Z,2.13
